Time;durP1;ratioP1;P1;durP2;ratioP2;P2;SDS_P1;SDS_P2;PMS_P1;PMS_P2;Temp;Humidity;BMP_temperature;BMP_pressure;BME280_temperature;BME280_humidity;BME280_pressure;Samples;Min_cycle;Max_cycle;Signal;HPM_P1;HPM_P2
2023/01/07 00:02:16;;;;;;;6.88;1.35;;;;;;;;;;5090843;28;20055;-63
2023/01/07 00:04:46;;;;;;;6.20;1.10;;;;;;;;;;5022938;28;20052;-63
2023/01/07 00:07:16;;;;;;;6.63;1.90;;;;;;;;;;5091157;28;20408;-63
2023/01/07 00:09:45;;;;;;;7.63;1.70;;;;;;;;;;5072458;28;20048;-63
2023/01/07 00:12:15;;;;;;;5.80;1.40;;;;;;;;;;5043626;28;20056;-63
2023/01/07 00:14:45;;;;;;;4.07;1.50;;;;;;;;;;5043608;28;20531;-62
2023/01/07 00:17:15;;;;;;;4.60;1.30;;;;;;;;;;5059272;28;20063;-63
2023/01/07 00:19:44;;;;;;;6.63;1.55;;;;;;;;;;5094453;28;20051;-63
2023/01/07 00:22:14;;;;;;;4.07;1.02;;;;;;;;;;5094452;28;20044;-63
2023/01/07 00:24:44;;;;;;;4.25;1.27;;;;;;;;;;5094191;28;20052;-63
2023/01/07 00:27:14;;;;;;;5.22;1.52;;;;;;;;;;5042360;28;20064;-63
2023/01/07 00:29:43;;;;;;;4.03;1.38;;;;;;;;;;5051471;28;20061;-62
2023/01/07 00:32:13;;;;;;;6.80;1.88;;;;;;;;;;5051801;28;20412;-63
2023/01/07 00:34:43;;;;;;;5.38;1.45;;;;;;;;;;5002044;28;20060;-63
2023/01/07 00:40:02;;;;;;;7.40;1.70;;;;;;;;;;5051511;28;20053;-63
2023/01/07 00:45:21;;;;;;;5.63;1.27;;;;;;;;;;5051558;28;20068;-62
2023/01/07 00:47:54;;;;;;;3.28;1.38;;;;;;;;;;5051354;28;20065;-62
2023/01/07 00:50:30;;;;;;;5.60;1.42;;;;;;;;;;5034733;28;20404;-63
2023/01/07 00:53:00;;;;;;;5.15;1.33;;;;;;;;;;4985268;28;20093;-63
2023/01/07 00:55:31;;;;;;;6.32;1.48;;;;;;;;;;5030933;28;20049;-63
2023/01/07 00:58:01;;;;;;;4.43;1.40;;;;;;;;;;5031249;28;20053;-62
2023/01/07 01:00:31;;;;;;;6.63;1.50;;;;;;;;;;5030964;28;20058;-62
2023/01/07 01:03:02;;;;;;;4.90;1.20;;;;;;;;;;5031200;28;20053;-62
2023/01/07 01:05:32;;;;;;;4.70;1.75;;;;;;;;;;5030790;28;20390;-63
2023/01/07 01:08:02;;;;;;;4.25;1.17;;;;;;;;;;5030040;28;20044;-63
2023/01/07 01:10:31;;;;;;;5.57;1.50;;;;;;;;;;5050963;28;20069;-63
2023/01/07 01:13:01;;;;;;;3.47;1.33;;;;;;;;;;5050514;28;20075;-62
2023/01/07 01:15:31;;;;;;;5.70;1.23;;;;;;;;;;5014102;28;20045;-62
2023/01/07 01:18:01;;;;;;;6.97;1.48;;;;;;;;;;5014141;28;20061;-62
2023/01/07 01:20:33;;;;;;;6.40;1.40;;;;;;;;;;5010575;28;20490;-63
2023/01/07 01:23:03;;;;;;;10.98;1.52;;;;;;;;;;5009930;28;20060;-62
2023/01/07 01:25:33;;;;;;;2.72;1.20;;;;;;;;;;5010616;28;20072;-62
2023/01/07 01:28:03;;;;;;;4.85;1.45;;;;;;;;;;4994573;28;20058;-62
2023/01/07 01:30:33;;;;;;;2.92;1.13;;;;;;;;;;5026894;28;20130;-62
2023/01/07 01:33:03;;;;;;;3.45;1.30;;;;;;;;;;4966347;28;20050;-62
2023/01/07 01:35:33;;;;;;;6.40;1.50;;;;;;;;;;4971152;28;20066;-62
2023/01/07 01:38:03;;;;;;;6.13;1.10;;;;;;;;;;4970873;28;20091;-62
2023/01/07 01:40:33;;;;;;;3.05;1.50;;;;;;;;;;4971325;28;20054;-62
2023/01/07 01:43:04;;;;;;;3.13;1.00;;;;;;;;;;4938071;28;20056;-62
2023/01/07 01:45:34;;;;;;;2.42;1.10;;;;;;;;;;4932560;29;20459;-62
2023/01/07 01:48:08;;;;;;;3.15;1.05;;;;;;;;;;4948820;28;20062;-62
2023/01/07 01:50:43;;;;;;;3.35;1.05;;;;;;;;;;4932310;29;20141;-62
2023/01/07 01:53:32;;;;;;;7.50;1.30;;;;;;;;;;4922645;29;20059;-63
2023/01/07 01:56:07;;;;;;;2.38;1.20;;;;;;;;;;4897801;29;20531;-63
2023/01/07 01:58:47;;;;;;;4.00;1.23;;;;;;;;;;4913574;29;20426;-62
2023/01/07 02:01:17;;;;;;;8.07;1.35;;;;;;;;;;4928903;29;20055;-63
2023/01/07 02:03:49;;;;;;;2.47;1.20;;;;;;;;;;4932316;29;20059;-63
2023/01/07 02:06:29;;;;;;;6.15;1.30;;;;;;;;;;4932597;29;20090;-63
2023/01/07 02:08:59;;;;;;;4.88;1.83;;;;;;;;;;4932219;29;20416;-63
2023/01/07 02:11:43;;;;;;;3.65;1.30;;;;;;;;;;4928751;29;20458;-62
2023/01/07 02:14:49;;;;;;;3.67;1.40;;;;;;;;;;4895310;29;20532;-63
2023/01/07 02:17:46;;;;;;;6.82;1.27;;;;;;;;;;4878017;29;20065;-62
2023/01/07 02:20:55;;;;;;;5.90;1.20;;;;;;;;;;4894632;29;20068;-63
2023/01/07 02:23:41;;;;;;;5.47;1.00;;;;;;;;;;4894166;29;20052;-62
2023/01/07 02:26:45;;;;;;;2.45;0.95;;;;;;;;;;4894231;29;20060;-62
2023/01/07 02:29:53;;;;;;;3.63;0.90;;;;;;;;;;4883172;29;20048;-63
2023/01/07 02:32:44;;;;;;;4.32;0.90;;;;;;;;;;4913114;29;20067;-63
2023/01/07 02:35:31;;;;;;;3.92;1.10;;;;;;;;;;4894294;29;20060;-63
2023/01/07 02:38:14;;;;;;;7.10;1.10;;;;;;;;;;4891923;29;20055;-63
2023/01/07 02:41:01;;;;;;;5.10;0.82;;;;;;;;;;4916297;29;20419;-63
2023/01/07 02:44:09;;;;;;;4.53;1.00;;;;;;;;;;4963820;28;20055;-63
2023/01/07 02:46:51;;;;;;;6.03;0.90;;;;;;;;;;4941102;29;20070;-62
2023/01/07 02:49:22;;;;;;;5.40;0.90;;;;;;;;;;4969779;28;20050;-62
2023/01/07 02:51:52;;;;;;;5.05;0.70;;;;;;;;;;4950977;29;20080;-62
2023/01/07 02:54:26;;;;;;;7.50;1.52;;;;;;;;;;4931127;29;20390;-63
2023/01/07 02:57:21;;;;;;;1.88;0.73;;;;;;;;;;4944506;29;20047;-63
2023/01/07 02:59:56;;;;;;;2.05;0.90;;;;;;;;;;4899996;29;20063;-63
2023/01/07 03:03:07;;;;;;;2.92;1.00;;;;;;;;;;4950524;29;20420;-63
2023/01/07 03:05:48;;;;;;;1.92;0.95;;;;;;;;;;4931233;29;20644;-62
2023/01/07 03:09:10;;;;;;;4.70;1.23;;;;;;;;;;4931384;29;20048;-62
2023/01/07 03:12:00;;;;;;;;;;;;;;;;;;4856544;29;20065;-63
2023/01/07 03:14:55;;;;;;;6.18;1.00;;;;;;;;;;4830088;29;19925;-63
2023/01/07 03:17:30;;;;;;;7.40;1.00;;;;;;;;;;4814440;29;20066;-63
2023/01/07 03:20:05;;;;;;;4.68;1.08;;;;;;;;;;4801385;29;20067;-62
2023/01/07 03:22:37;;;;;;;9.02;1.23;;;;;;;;;;4801470;29;20063;-63
2023/01/07 03:25:10;;;;;;;4.35;0.90;;;;;;;;;;4802012;29;20059;-63
2023/01/07 03:27:43;;;;;;;15.98;1.33;;;;;;;;;;4816254;29;20047;-63
2023/01/07 03:30:16;;;;;;;3.90;1.00;;;;;;;;;;4801402;29;20070;-63
2023/01/07 03:33:12;;;;;;;2.72;0.93;;;;;;;;;;4790051;29;20066;-63
2023/01/07 03:35:48;;;;;;;3.45;0.98;;;;;;;;;;4836915;29;20050;-63
2023/01/07 03:38:23;;;;;;;4.55;0.90;;;;;;;;;;4818756;29;20062;-63
2023/01/07 03:40:54;;;;;;;4.03;0.90;;;;;;;;;;4819529;29;20058;-63
2023/01/07 03:43:25;;;;;;;4.00;1.20;;;;;;;;;;4763270;29;20097;-63
2023/01/07 03:45:56;;;;;;;4.60;0.88;;;;;;;;;;4797284;29;20063;-63
2023/01/07 03:48:28;;;;;;;3.75;1.00;;;;;;;;;;4826839;29;20054;-62
2023/01/07 03:50:58;;;;;;;4.07;0.85;;;;;;;;;;4853721;29;20069;-62
2023/01/07 03:53:27;;;;;;;2.95;0.98;;;;;;;;;;4859284;29;20054;-62
2023/01/07 03:55:57;;;;;;;7.18;0.93;;;;;;;;;;4897110;29;20079;-63
2023/01/07 03:58:27;;;;;;;4.78;1.17;;;;;;;;;;4927794;29;20051;-62
2023/01/07 04:00:57;;;;;;;2.60;0.98;;;;;;;;;;4891495;29;20431;-62
2023/01/07 04:03:27;;;;;;;3.03;0.90;;;;;;;;;;4899657;29;20059;-63
2023/01/07 04:05:56;;;;;;;6.35;0.98;;;;;;;;;;4880785;29;20812;-63
2023/01/07 04:08:26;;;;;;;4.20;0.80;;;;;;;;;;4903399;29;20052;-63
2023/01/07 04:10:56;;;;;;;2.35;1.00;;;;;;;;;;4896766;29;20060;-63
2023/01/07 04:13:27;;;;;;;2.38;0.90;;;;;;;;;;4911804;29;20071;-63
2023/01/07 04:15:57;;;;;;;2.47;0.90;;;;;;;;;;4865109;29;20051;-63
2023/01/07 04:18:27;;;;;;;3.88;0.98;;;;;;;;;;4906743;29;20101;-64
2023/01/07 04:20:56;;;;;;;3.35;0.80;;;;;;;;;;4907420;29;20430;-64
2023/01/07 04:23:26;;;;;;;3.17;0.85;;;;;;;;;;4896392;29;20053;-63
2023/01/07 04:25:58;;;;;;;6.78;1.77;;;;;;;;;;4915164;29;20056;-64
2023/01/07 04:28:27;;;;;;;5.70;1.00;;;;;;;;;;4918072;29;20055;-64
2023/01/07 04:30:59;;;;;;;3.40;1.10;;;;;;;;;;4871932;29;20205;-63
2023/01/07 04:33:31;;;;;;;4.65;0.80;;;;;;;;;;4842374;29;20062;-63
2023/01/07 04:36:01;;;;;;;5.22;0.82;;;;;;;;;;4832169;29;20446;-64
2023/01/07 04:38:31;;;;;;;2.05;0.70;;;;;;;;;;4840340;29;20054;-63
2023/01/07 04:41:00;;;;;;;4.80;0.70;;;;;;;;;;4803499;29;20055;-63
2023/01/07 04:43:30;;;;;;;2.53;0.73;;;;;;;;;;4821727;29;20494;-63
2023/01/07 04:46:00;;;;;;;2.03;0.60;;;;;;;;;;4813840;29;20556;-63
2023/01/07 04:48:30;;;;;;;2.55;0.88;;;;;;;;;;4838281;29;20052;-63
2023/01/07 04:51:00;;;;;;;3.50;0.75;;;;;;;;;;4860707;29;20062;-63
2023/01/07 04:53:30;;;;;;;4.68;0.80;;;;;;;;;;4813814;29;20058;-63
2023/01/07 04:56:00;;;;;;;7.18;0.90;;;;;;;;;;4838319;29;20050;-64
2023/01/07 04:58:30;;;;;;;3.25;0.80;;;;;;;;;;4803555;29;20397;-64
2023/01/07 05:01:02;;;;;;;3.47;0.98;;;;;;;;;;4839877;29;20148;-64
2023/01/07 05:03:34;;;;;;;4.13;0.80;;;;;;;;;;4840036;29;20066;-64
2023/01/07 05:06:05;;;;;;;7.03;0.70;;;;;;;;;;4837269;29;20074;-64
2023/01/07 05:08:35;;;;;;;6.40;0.82;;;;;;;;;;4868059;29;20058;-63
2023/01/07 05:11:06;;;;;;;7.57;1.13;;;;;;;;;;4859452;29;20057;-64
2023/01/07 05:13:39;;;;;;;3.80;0.63;;;;;;;;;;4842575;29;20053;-64
2023/01/07 05:16:10;;;;;;;2.20;0.52;;;;;;;;;;4849037;29;20065;-64
2023/01/07 05:18:41;;;;;;;5.03;0.68;;;;;;;;;;4878499;29;20061;-64
2023/01/07 05:21:12;;;;;;;4.68;0.70;;;;;;;;;;4827575;29;20046;-64
2023/01/07 05:23:42;;;;;;;4.28;0.70;;;;;;;;;;4857935;29;20053;-64
2023/01/07 05:26:11;;;;;;;4.53;0.60;;;;;;;;;;4882573;29;20067;-64
2023/01/07 05:28:41;;;;;;;3.03;0.63;;;;;;;;;;4848805;29;20072;-64
2023/01/07 05:31:12;;;;;;;2.58;0.80;;;;;;;;;;4885807;29;20081;-63
2023/01/07 05:33:42;;;;;;;2.05;0.70;;;;;;;;;;4879351;29;20637;-64
2023/01/07 05:36:12;;;;;;;8.27;0.70;;;;;;;;;;4876074;29;20049;-64
2023/01/07 05:38:42;;;;;;;3.20;0.65;;;;;;;;;;4845476;29;20068;-64
2023/01/07 05:41:12;;;;;;;5.25;0.80;;;;;;;;;;4849526;29;20062;-64
2023/01/07 05:43:41;;;;;;;1.23;0.55;;;;;;;;;;4812596;29;20528;-64
2023/01/07 05:46:11;;;;;;;2.88;0.50;;;;;;;;;;4848581;29;20058;-64
2023/01/07 05:48:41;;;;;;;2.00;0.60;;;;;;;;;;4821008;29;20069;-64
2023/01/07 05:51:10;;;;;;;3.15;0.60;;;;;;;;;;4828681;29;20526;-64
2023/01/07 05:53:40;;;;;;;3.45;0.90;;;;;;;;;;4839367;29;20076;-64
2023/01/07 05:56:09;;;;;;;4.32;0.90;;;;;;;;;;4846947;29;20077;-64
2023/01/07 05:58:39;;;;;;;3.50;0.70;;;;;;;;;;4831870;29;20057;-64
2023/01/07 06:01:09;;;;;;;3.15;0.57;;;;;;;;;;4841539;29;20449;-64
2023/01/07 06:03:38;;;;;;;6.47;1.00;;;;;;;;;;4895036;29;20080;-64
2023/01/07 06:06:08;;;;;;;1.83;0.50;;;;;;;;;;4891214;29;20505;-64
2023/01/07 06:08:39;;;;;;;1.95;0.63;;;;;;;;;;4913461;29;20060;-64
2023/01/07 06:11:08;;;;;;;5.30;0.63;;;;;;;;;;4897876;29;20064;-64
2023/01/07 06:13:38;;;;;;;4.68;0.82;;;;;;;;;;4929380;29;20063;-64
2023/01/07 06:16:09;;;;;;;1.88;0.60;;;;;;;;;;4952010;29;20053;-64
2023/01/07 06:18:40;;;;;;;4.25;0.70;;;;;;;;;;4976132;28;20528;-64
2023/01/07 06:21:09;;;;;;;3.63;0.90;;;;;;;;;;4969782;28;20057;-64
2023/01/07 06:23:39;;;;;;;4.70;0.70;;;;;;;;;;5029420;28;20049;-64
2023/01/07 06:26:09;;;;;;;4.70;0.80;;;;;;;;;;5029881;28;20045;-64
2023/01/07 06:28:38;;;;;;;4.32;1.17;;;;;;;;;;5029426;28;20521;-64
2023/01/07 06:31:10;;;;;;;1.55;0.52;;;;;;;;;;5029787;28;20053;-64
2023/01/07 06:33:40;;;;;;;4.18;0.63;;;;;;;;;;4980033;28;20064;-64
2023/01/07 06:36:10;;;;;;;4.53;0.80;;;;;;;;;;5029308;28;20049;-64
2023/01/07 06:38:40;;;;;;;4.45;0.68;;;;;;;;;;4996324;28;20524;-64
2023/01/07 06:41:10;;;;;;;3.30;0.70;;;;;;;;;;5013424;28;20092;-64
2023/01/07 06:43:39;;;;;;;2.97;0.70;;;;;;;;;;5023713;28;20515;-64
2023/01/07 06:46:09;;;;;;;2.13;0.80;;;;;;;;;;5055977;28;20051;-64
2023/01/07 06:48:39;;;;;;;1.40;0.57;;;;;;;;;;5064985;28;20056;-64
2023/01/07 06:51:09;;;;;;;2.65;1.10;;;;;;;;;;5048891;28;20127;-64
2023/01/07 06:53:38;;;;;;;5.53;0.85;;;;;;;;;;5016004;28;20065;-64
2023/01/07 06:56:08;;;;;;;3.20;0.80;;;;;;;;;;5032542;28;20060;-64
2023/01/07 06:58:38;;;;;;;2.55;0.82;;;;;;;;;;4999119;28;20064;-64
2023/01/07 07:01:08;;;;;;;2.60;1.00;;;;;;;;;;5048786;28;20625;-64
2023/01/07 07:03:38;;;;;;;4.63;0.68;;;;;;;;;;5032305;28;20049;-64
2023/01/07 07:06:08;;;;;;;4.07;0.90;;;;;;;;;;5031972;28;20053;-64
2023/01/07 07:08:39;;;;;;;1.60;0.60;;;;;;;;;;5031993;28;20053;-64
2023/01/07 07:11:09;;;;;;;4.25;0.68;;;;;;;;;;5049339;28;20052;-64
2023/01/07 07:13:39;;;;;;;6.97;0.80;;;;;;;;;;5048834;28;20053;-64
2023/01/07 07:16:09;;;;;;;2.85;0.70;;;;;;;;;;5048819;28;20049;-63
2023/01/07 07:18:38;;;;;;;3.30;0.70;;;;;;;;;;5048725;28;20045;-63
2023/01/07 07:21:08;;;;;;;4.25;0.60;;;;;;;;;;5002732;28;20071;-63
2023/01/07 07:23:37;;;;;;;3.45;0.90;;;;;;;;;;4999710;28;20041;-63
2023/01/07 07:26:08;;;;;;;4.50;0.90;;;;;;;;;;4992000;28;20056;-64
2023/01/07 07:28:41;;;;;;;2.88;0.70;;;;;;;;;;5012944;28;20445;-64
2023/01/07 07:31:11;;;;;;;2.13;0.60;;;;;;;;;;4980882;28;20061;-63
2023/01/07 07:33:41;;;;;;;5.60;0.93;;;;;;;;;;5012931;28;20405;-64
2023/01/07 07:36:10;;;;;;;5.72;1.13;;;;;;;;;;4980351;28;20066;-64
2023/01/07 07:38:40;;;;;;;5.10;0.75;;;;;;;;;;4996841;28;20118;-64
2023/01/07 07:41:10;;;;;;;4.68;0.77;;;;;;;;;;4957904;28;20050;-64
2023/01/07 07:43:41;;;;;;;5.93;0.60;;;;;;;;;;4973713;28;20062;-63
2023/01/07 07:46:10;;;;;;;7.85;0.90;;;;;;;;;;4941552;28;20058;-63
2023/01/07 07:48:40;;;;;;;3.80;0.73;;;;;;;;;;4973614;28;20054;-64
2023/01/07 07:51:09;;;;;;;6.85;1.10;;;;;;;;;;4925385;28;20074;-64
2023/01/07 07:53:39;;;;;;;5.88;0.85;;;;;;;;;;4973694;28;20446;-63
2023/01/07 07:56:09;;;;;;;6.18;0.98;;;;;;;;;;4973531;28;20427;-64
2023/01/07 07:58:39;;;;;;;2.70;0.50;;;;;;;;;;4957186;28;20061;-64
2023/01/07 08:01:09;;;;;;;7.30;1.10;;;;;;;;;;4941166;28;20059;-64
2023/01/07 08:03:39;;;;;;;7.53;0.80;;;;;;;;;;4973365;28;20061;-63
2023/01/07 08:06:11;;;;;;;1.45;0.90;;;;;;;;;;4958190;28;20065;-64
2023/01/07 08:08:41;;;;;;;3.28;0.90;;;;;;;;;;5028905;28;20058;-63
2023/01/07 08:11:12;;;;;;;4.25;1.20;;;;;;;;;;5012310;28;20050;-63
2023/01/07 08:13:42;;;;;;;5.35;0.95;;;;;;;;;;5012305;28;20076;-63
2023/01/07 08:16:11;;;;;;;4.43;1.23;;;;;;;;;;4996488;28;20537;-63
2023/01/07 08:18:42;;;;;;;4.15;0.98;;;;;;;;;;5031137;28;20057;-64
2023/01/07 08:21:12;;;;;;;2.25;0.60;;;;;;;;;;5018698;28;20139;-63
2023/01/07 08:23:41;;;;;;;2.97;0.88;;;;;;;;;;5054381;28;20079;-64
2023/01/07 08:26:11;;;;;;;4.00;0.95;;;;;;;;;;4975867;28;20050;-63
2023/01/07 08:28:40;;;;;;;2.75;0.80;;;;;;;;;;4940803;28;20055;-64
2023/01/07 08:31:13;;;;;;;4.30;0.70;;;;;;;;;;4972491;28;20054;-63
2023/01/07 08:33:43;;;;;;;5.47;1.13;;;;;;;;;;4972358;28;20059;-63
2023/01/07 08:36:12;;;;;;;2.67;0.70;;;;;;;;;;4972694;28;20058;-63
2023/01/07 08:38:54;;;;;;;3.95;0.80;;;;;;;;;;4972638;28;20065;-63
2023/01/07 08:41:24;;;;;;;2.97;0.80;;;;;;;;;;4972736;28;20066;-64
2023/01/07 08:43:54;;;;;;;3.38;0.93;;;;;;;;;;4972697;28;20065;-63
2023/01/07 08:46:24;;;;;;;4.68;0.77;;;;;;;;;;4955951;28;20062;-64
2023/01/07 08:48:54;;;;;;;3.42;0.70;;;;;;;;;;4972239;28;20101;-63
2023/01/07 08:51:23;;;;;;;4.38;0.70;;;;;;;;;;4979096;28;20061;-63
2023/01/07 08:53:54;;;;;;;4.82;0.65;;;;;;;;;;4992160;28;20058;-64
2023/01/07 08:56:24;;;;;;;1.95;0.75;;;;;;;;;;4991738;28;20065;-64
2023/01/07 08:58:54;;;;;;;5.95;0.90;;;;;;;;;;4972111;28;20162;-63
2023/01/07 09:01:23;;;;;;;8.45;0.80;;;;;;;;;;4972330;28;20062;-64
2023/01/07 09:03:53;;;;;;;15.40;1.05;;;;;;;;;;5003716;28;20481;-64
2023/01/07 09:06:22;;;;;;;2.45;0.70;;;;;;;;;;5002853;28;20064;-63
2023/01/07 09:08:52;;;;;;;5.32;0.80;;;;;;;;;;5054058;28;20131;-63
2023/01/07 09:11:22;;;;;;;2.10;0.90;;;;;;;;;;5070769;28;20060;-63
2023/01/07 09:13:52;;;;;;;3.28;0.80;;;;;;;;;;5054121;28;20056;-63
2023/01/07 09:16:21;;;;;;;4.55;1.02;;;;;;;;;;5070721;28;20582;-63
2023/01/07 09:18:53;;;;;;;6.50;0.65;;;;;;;;;;5037399;28;20059;-63
2023/01/07 09:21:22;;;;;;;2.85;0.80;;;;;;;;;;5071161;28;20055;-63
2023/01/07 09:23:52;;;;;;;2.35;0.93;;;;;;;;;;5070784;28;20393;-63
2023/01/07 09:26:22;;;;;;;2.22;0.60;;;;;;;;;;5037248;28;20056;-63
2023/01/07 09:28:51;;;;;;;2.78;1.15;;;;;;;;;;5021982;28;20056;-63
2023/01/07 09:31:21;;;;;;;3.17;0.82;;;;;;;;;;5053810;28;20056;-63
2023/01/07 09:33:51;;;;;;;4.82;1.00;;;;;;;;;;5070905;28;20052;-63
2023/01/07 09:36:21;;;;;;;2.65;0.85;;;;;;;;;;5071351;28;20501;-64
2023/01/07 09:38:50;;;;;;;6.38;0.90;;;;;;;;;;5072826;28;20503;-63
2023/01/07 09:42:03;;;;;;;1.80;1.00;;;;;;;;;;5072684;28;20051;-63
2023/01/07 09:44:34;;;;;;;4.05;0.95;;;;;;;;;;5104416;28;20052;-64
2023/01/07 09:47:05;;;;;;;6.07;1.20;;;;;;;;;;5104015;28;20057;-63
2023/01/07 09:49:36;;;;;;;2.65;0.90;;;;;;;;;;5090158;28;20047;-64
2023/01/07 09:52:15;;;;;;;5.07;1.38;;;;;;;;;;5057378;28;20068;-63
2023/01/07 09:54:49;;;;;;;8.57;1.40;;;;;;;;;;5090261;28;20059;-63
2023/01/07 09:57:20;;;;;;;9.32;1.73;;;;;;;;;;5032976;28;20492;-63
2023/01/07 09:59:49;;;;;;;2.72;1.52;;;;;;;;;;5050035;28;20056;-64
2023/01/07 10:02:50;;;;;;;5.05;0.98;;;;;;;;;;5009903;28;20501;-63
2023/01/07 10:05:30;;;;;;;6.40;1.02;;;;;;;;;;4993712;28;20501;-64
2023/01/07 10:08:16;;;;;;;5.85;0.90;;;;;;;;;;5010227;28;20061;-64
2023/01/07 10:11:42;;;;;;;5.65;1.10;;;;;;;;;;5010192;28;20050;-63
2023/01/07 10:14:30;;;;;;;7.20;1.05;;;;;;;;;;4916467;29;20220;-64
2023/01/07 10:17:24;;;;;;;8.30;1.13;;;;;;;;;;4932246;29;20066;-64
2023/01/07 10:20:07;;;;;;;4.25;0.80;;;;;;;;;;4932490;29;20047;-64
2023/01/07 10:22:44;;;;;;;11.10;1.10;;;;;;;;;;4932506;29;20066;-64
2023/01/07 10:25:31;;;;;;;15.40;1.10;;;;;;;;;;4932695;28;20051;-64
2023/01/07 10:28:09;;;;;;;12.75;1.10;;;;;;;;;;4919248;29;20059;-64
2023/01/07 10:30:44;;;;;;;5.65;1.00;;;;;;;;;;4929046;29;20464;-64
2023/01/07 10:33:30;;;;;;;5.28;1.00;;;;;;;;;;4931946;29;20098;-64
2023/01/07 10:36:19;;;;;;;6.65;1.27;;;;;;;;;;4943002;29;20059;-64
2023/01/07 10:39:27;;;;;;;8.63;0.90;;;;;;;;;;4960824;28;20047;-63
2023/01/07 10:42:34;;;;;;;6.90;0.90;;;;;;;;;;4960558;28;20055;-64
2023/01/07 10:45:29;;;;;;;3.15;0.90;;;;;;;;;;4931257;28;20054;-64
2023/01/07 10:48:29;;;;;;;2.70;0.70;;;;;;;;;;4953649;28;20049;-64
2023/01/07 10:51:48;;;;;;;5.45;0.93;;;;;;;;;;4970063;28;20505;-63
2023/01/07 10:54:32;;;;;;;4.90;0.40;;;;;;;;;;5017285;28;20042;-64
2023/01/07 10:57:09;;;;;;;5.20;0.80;;;;;;;;;;4993707;28;20449;-64
2023/01/07 10:59:45;;;;;;;7.25;1.02;;;;;;;;;;5020033;28;20505;-63
2023/01/07 11:02:19;;;;;;;2.10;0.40;;;;;;;;;;5020513;28;20049;-64
2023/01/07 11:04:52;;;;;;;2.50;0.47;;;;;;;;;;5019849;28;20065;-63
2023/01/07 11:07:30;;;;;;;3.67;0.63;;;;;;;;;;5023207;28;20054;-63
2023/01/07 11:10:03;;;;;;;4.53;0.40;;;;;;;;;;4996373;28;20061;-62
2023/01/07 11:12:36;;;;;;;3.97;0.40;;;;;;;;;;5029109;28;20192;-63
2023/01/07 11:15:15;;;;;;;2.55;0.22;;;;;;;;;;5028930;28;20061;-63
2023/01/07 11:17:51;;;;;;;4.22;0.40;;;;;;;;;;5030132;28;20148;-63
2023/01/07 11:20:47;;;;;;;0.98;0.20;;;;;;;;;;5052556;28;20053;-63
2023/01/07 11:23:32;;;;;;;3.72;0.55;;;;;;;;;;5068892;28;20052;-63
2023/01/07 11:26:17;;;;;;;4.00;0.35;;;;;;;;;;5036324;28;20548;-63
2023/01/07 11:28:53;;;;;;;7.18;0.40;;;;;;;;;;5052494;28;20072;-63
2023/01/07 11:31:48;;;;;;;2.42;0.50;;;;;;;;;;5071165;28;20044;-62
2023/01/07 11:34:35;;;;;;;3.13;0.57;;;;;;;;;;5071498;28;20044;-63
2023/01/07 11:37:05;;;;;;;2.90;0.40;;;;;;;;;;5069038;28;20052;-63
2023/01/07 11:39:35;;;;;;;2.83;0.52;;;;;;;;;;5071018;28;20071;-64
2023/01/07 11:45:25;;;;;;;3.53;0.40;;;;;;;;;;5070979;28;20040;-63
2023/01/07 11:48:04;;;;;;;4.45;0.30;;;;;;;;;;5047801;28;20068;-62
2023/01/07 11:50:39;;;;;;;4.43;0.35;;;;;;;;;;5071167;28;20045;-63
2023/01/07 11:53:15;;;;;;;3.83;0.45;;;;;;;;;;5091329;28;20056;-63
2023/01/07 11:55:56;;;;;;;4.63;1.05;;;;;;;;;;5091282;28;20044;-63
2023/01/07 11:58:32;;;;;;;1.98;0.65;;;;;;;;;;5038802;28;20056;-62
2023/01/07 12:01:02;;;;;;;4.45;0.47;;;;;;;;;;5057088;28;20052;-62
2023/01/07 12:03:38;;;;;;;1.98;0.63;;;;;;;;;;5091320;28;20123;-63
2023/01/07 12:06:11;;;;;;;2.80;1.25;;;;;;;;;;5092304;28;20044;-64
2023/01/07 12:08:49;;;;;;;2.25;0.40;;;;;;;;;;5042450;28;20048;-63
2023/01/07 12:11:20;;;;;;;4.85;0.95;;;;;;;;;;5094790;28;20044;-63
2023/01/07 12:13:51;;;;;;;1.35;0.30;;;;;;;;;;5059860;28;20415;-63
2023/01/07 12:16:27;;;;;;;4.72;1.35;;;;;;;;;;5094692;28;20376;-63
2023/01/07 12:19:09;;;;;;;3.00;0.50;;;;;;;;;;5043942;28;20507;-63
2023/01/07 12:21:57;;;;;;;5.25;2.83;;;;;;;;;;5071541;28;20508;-64
2023/01/07 12:24:47;;;;;;;6.68;0.47;;;;;;;;;;5021906;28;20539;-64
2023/01/07 12:27:34;;;;;;;3.80;0.60;;;;;;;;;;5006280;28;20063;-64
2023/01/07 12:30:24;;;;;;;2.88;0.85;;;;;;;;;;5070124;28;20488;-63
2023/01/07 12:33:31;;;;;;;1.75;0.63;;;;;;;;;;5065422;28;20147;-64
2023/01/07 12:36:10;;;;;;;2.45;0.60;;;;;;;;;;5070555;28;20052;-63
2023/01/07 12:38:48;;;;;;;1.35;0.43;;;;;;;;;;5060716;28;20049;-65
2023/01/07 12:41:36;;;;;;;1.90;0.75;;;;;;;;;;5054566;28;20578;-64
2023/01/07 12:44:12;;;;;;;4.18;0.50;;;;;;;;;;5055296;28;20044;-63
2023/01/07 12:46:50;;;;;;;3.33;0.60;;;;;;;;;;5033567;28;20049;-65
2023/01/07 12:49:24;;;;;;;0.65;0.32;;;;;;;;;;5044674;28;20408;-65
2023/01/07 12:52:11;;;;;;;4.00;0.68;;;;;;;;;;5064017;28;20075;-65
2023/01/07 12:54:51;;;;;;;2.83;0.45;;;;;;;;;;5054718;28;20071;-65
2023/01/07 12:57:28;;;;;;;1.42;0.88;;;;;;;;;;5035198;28;20063;-64
2023/01/07 13:00:07;;;;;;;4.70;0.98;;;;;;;;;;5034122;28;20059;-64
2023/01/07 13:02:53;;;;;;;4.10;1.35;;;;;;;;;;5084960;28;20491;-65
2023/01/07 13:05:51;;;;;;;3.50;0.47;;;;;;;;;;4994740;28;20044;-65
2023/01/07 13:08:33;;;;;;;0.63;0.30;;;;;;;;;;5064354;28;20036;-64
2023/01/07 13:11:10;;;;;;;4.00;0.63;;;;;;;;;;5083717;28;20044;-65
2023/01/07 13:13:46;;;;;;;2.95;0.70;;;;;;;;;;5069196;28;20041;-63
2023/01/07 13:16:16;;;;;;;2.13;0.40;;;;;;;;;;5068963;28;20429;-64
2023/01/07 13:18:46;;;;;;;2.58;0.30;;;;;;;;;;5052123;28;20420;-65
2023/01/07 13:21:19;;;;;;;1.60;0.30;;;;;;;;;;5070378;28;20040;-64
2023/01/07 13:24:30;;;;;;;3.13;0.68;;;;;;;;;;5053544;28;20059;-65
2023/01/07 13:27:28;;;;;;;2.05;0.70;;;;;;;;;;5023039;28;20049;-64
2023/01/07 13:30:09;;;;;;;;;;;;;;;;;;5015953;28;20053;-64
2023/01/07 13:33:03;;;;;;;1.20;0.43;;;;;;;;;;5010391;28;19925;-63
2023/01/07 13:35:33;;;;;;;1.27;0.40;;;;;;;;;;4962449;28;20058;-63
2023/01/07 13:38:29;;;;;;;2.08;0.82;;;;;;;;;;5010568;28;20054;-64
2023/01/07 13:41:34;;;;;;;4.57;0.50;;;;;;;;;;4994521;28;20046;-65
2023/01/07 13:44:39;;;;;;;2.17;0.38;;;;;;;;;;5010691;28;20057;-64
2023/01/07 13:47:14;;;;;;;1.50;0.40;;;;;;;;;;5017287;28;20150;-68
2023/01/07 13:49:44;;;;;;;5.50;0.60;;;;;;;;;;5029893;28;20056;-63
2023/01/07 13:52:29;;;;;;;4.38;1.00;;;;;;;;;;5030475;28;20053;-64
2023/01/07 13:55:02;;;;;;;2.20;0.80;;;;;;;;;;5030605;28;20060;-65
2023/01/07 13:57:40;;;;;;;4.03;0.70;;;;;;;;;;5030345;28;20041;-65
2023/01/07 14:00:44;;;;;;;2.63;0.30;;;;;;;;;;4997722;28;20572;-65
2023/01/07 14:03:46;;;;;;;2.67;0.60;;;;;;;;;;4997355;28;20669;-64
2023/01/07 14:06:20;;;;;;;4.05;0.50;;;;;;;;;;4939102;28;20412;-64
2023/01/07 14:09:12;;;;;;;0.45;0.20;;;;;;;;;;4990985;28;20054;-65
2023/01/07 14:12:23;;;;;;;1.35;0.25;;;;;;;;;;4974591;28;20078;-64
2023/01/07 14:15:07;;;;;;;1.75;0.20;;;;;;;;;;4990748;28;20058;-65
2023/01/07 14:18:03;;;;;;;3.17;0.30;;;;;;;;;;4990862;28;20109;-65
2023/01/07 14:20:58;;;;;;;1.85;0.30;;;;;;;;;;4974689;28;20059;-65
2023/01/07 14:23:38;;;;;;;0.40;0.22;;;;;;;;;;4932566;29;20520;-64
2023/01/07 14:26:45;;;;;;;0.95;0.40;;;;;;;;;;4900795;29;20047;-65
2023/01/07 14:29:39;;;;;;;0.63;0.20;;;;;;;;;;4948139;28;20055;-64
2023/01/07 14:32:28;;;;;;;0.82;0.43;;;;;;;;;;4932970;29;20075;-64
2023/01/07 14:35:10;;;;;;;3.40;0.38;;;;;;;;;;4932404;29;20243;-65
2023/01/07 14:37:45;;;;;;;1.88;0.50;;;;;;;;;;4932646;29;20064;-64
2023/01/07 14:40:28;;;;;;;1.45;0.40;;;;;;;;;;4894155;29;20057;-65
2023/01/07 14:43:02;;;;;;;0.40;0.20;;;;;;;;;;4900768;29;20048;-64
2023/01/07 14:45:41;;;;;;;2.40;0.52;;;;;;;;;;4903196;28;20060;-68
2023/01/07 14:48:11;;;;;;;2.03;0.40;;;;;;;;;;4968001;28;20069;-65
2023/01/07 14:50:55;;;;;;;0.88;0.30;;;;;;;;;;4970783;28;20066;-65
2023/01/07 14:54:07;;;;;;;2.08;0.43;;;;;;;;;;4970271;28;20054;-65
2023/01/07 14:57:08;;;;;;;2.13;0.20;;;;;;;;;;4863305;29;20072;-63
2023/01/07 15:00:02;;;;;;;1.23;0.45;;;;;;;;;;4838631;29;20081;-63
2023/01/07 15:03:16;;;;;;;1.08;0.25;;;;;;;;;;4838705;29;20050;-63
2023/01/07 15:06:08;;;;;;;2.53;0.30;;;;;;;;;;4838564;29;20062;-62
2023/01/07 15:17:39;;;;;;;2.05;0.40;;;;;;;;;;4772144;29;19925;-64
2023/01/07 15:20:09;;;;;;;1.77;0.40;;;;;;;;;;4787136;29;20070;-64
2023/01/07 15:22:56;;;;;;;0.95;0.40;;;;;;;;;;4801952;29;20058;-64
2023/01/07 15:25:58;;;;;;;0.85;0.30;;;;;;;;;;4801991;29;20051;-65
2023/01/07 15:29:00;;;;;;;1.05;0.38;;;;;;;;;;4801743;29;20066;-64
2023/01/07 15:31:53;;;;;;;1.00;0.32;;;;;;;;;;4866182;29;20061;-64
2023/01/07 15:34:29;;;;;;;0.80;0.20;;;;;;;;;;4875303;29;20056;-64
2023/01/07 15:37:03;;;;;;;1.17;0.45;;;;;;;;;;4930363;28;20054;-64
2023/01/07 15:39:44;;;;;;;0.85;0.35;;;;;;;;;;4970175;28;20051;-64
2023/01/07 15:42:19;;;;;;;2.50;0.40;;;;;;;;;;4973018;28;20128;-64
2023/01/07 15:44:53;;;;;;;0.98;0.30;;;;;;;;;;4974149;28;21294;-64
2023/01/07 15:47:40;;;;;;;1.70;0.32;;;;;;;;;;4973808;28;20120;-65
2023/01/07 15:50:23;;;;;;;0.73;0.30;;;;;;;;;;5074963;28;20045;-65
2023/01/07 15:52:54;;;;;;;0.70;0.22;;;;;;;;;;5074093;28;20052;-64
2023/01/07 15:55:29;;;;;;;2.85;0.43;;;;;;;;;;5055179;28;20071;-66
2023/01/07 15:58:12;;;;;;;1.40;0.30;;;;;;;;;;4992081;28;20056;-65
2023/01/07 16:00:42;;;;;;;2.83;0.32;;;;;;;;;;5073342;28;20055;-65